createdAt,value
2023-01-04T00:00:29.329Z,10.85
2023-01-04T00:02:59.026Z,10.85
2023-01-04T00:05:28.449Z,10.86
2023-01-04T00:07:57.942Z,11.05
2023-01-04T00:10:27.349Z,11.13
2023-01-04T00:12:56.506Z,11.27
2023-01-04T00:15:26.036Z,11.29
2023-01-04T00:17:55.579Z,11.28
2023-01-04T00:20:24.964Z,11.28
2023-01-04T00:22:54.624Z,11.23
2023-01-04T00:25:23.660Z,11.20
2023-01-04T00:27:53.853Z,11.20
2023-01-04T00:30:23.177Z,11.18
2023-01-04T00:32:52.337Z,11.08
2023-01-04T00:35:44.197Z,10.98
2023-01-04T00:38:11.275Z,11.06
2023-01-04T00:40:40.899Z,11.06
2023-01-04T00:43:10.160Z,10.75
2023-01-04T00:45:39.484Z,10.80
2023-01-04T00:48:08.605Z,10.89
2023-01-04T00:50:37.559Z,10.77
2023-01-04T00:53:07.388Z,10.81
2023-01-04T00:55:36.568Z,10.85
2023-01-04T00:58:05.926Z,10.97
2023-01-04T01:00:39.024Z,10.78
2023-01-04T01:03:09.660Z,10.60
2023-01-04T01:05:41.099Z,10.67
2023-01-04T01:08:29.382Z,10.92
2023-01-04T01:11:07.520Z,10.78
2023-01-04T01:13:40.790Z,10.69
2023-01-04T01:16:13.768Z,10.63
2023-01-04T01:18:46.197Z,10.77
2023-01-04T01:21:18.865Z,11.03
2023-01-04T01:23:49.642Z,10.84
2023-01-04T01:26:22.167Z,11.07
2023-01-04T01:28:51.491Z,11.10
2023-01-04T01:31:23.692Z,10.89
2023-01-04T01:33:55.464Z,10.97
2023-01-04T01:36:27.963Z,11.04
2023-01-04T01:38:58.269Z,11.07
2023-01-04T01:41:33.602Z,10.96
2023-01-04T01:44:27.347Z,11.04
2023-01-04T01:46:57.161Z,11.05
2023-01-04T01:49:31.487Z,10.86
2023-01-04T01:52:05.819Z,10.92
2023-01-04T01:54:38.661Z,11.03
2023-01-04T01:57:11.120Z,10.90
2023-01-04T01:59:42.244Z,11.03
2023-01-04T02:02:13.508Z,11.00
2023-01-04T02:04:49.060Z,11.04
2023-01-04T02:07:24.091Z,11.04
2023-01-04T02:09:53.791Z,10.49
2023-01-04T02:12:23.771Z,10.83
2023-01-04T02:14:53.744Z,10.88
2023-01-04T02:17:39.092Z,10.69
2023-01-04T02:20:41.715Z,10.64
2023-01-04T02:23:36.175Z,10.67
2023-01-04T02:26:30.323Z,10.71
2023-01-04T02:29:21.456Z,10.17
2023-01-04T02:31:57.285Z,10.61
2023-01-04T02:34:33.155Z,10.61
2023-01-04T02:37:10.175Z,10.51
2023-01-04T02:40:17.805Z,10.83
2023-01-04T02:43:19.078Z,10.86
2023-01-04T02:45:59.842Z,10.86
2023-01-04T02:48:58.679Z,10.69
2023-01-04T02:51:36.891Z,10.64
2023-01-04T02:54:16.578Z,10.78
2023-01-04T02:57:05.693Z,10.80
2023-01-04T02:59:59.468Z,10.86
2023-01-04T03:03:04.814Z,10.77
2023-01-04T03:06:16.598Z,11.01
2023-01-04T03:09:07.667Z,10.79
2023-01-04T03:12:24.729Z,10.95
2023-01-04T03:15:12.218Z,10.71
2023-01-04T03:18:05.383Z,10.92
2023-01-04T03:20:35.259Z,10.74
2023-01-04T03:23:26.839Z,10.95
2023-01-04T03:26:22.988Z,10.97
2023-01-04T03:29:12.255Z,10.81
2023-01-04T03:32:18.550Z,10.71
2023-01-04T03:35:07.131Z,10.98
2023-01-04T03:37:50.819Z,11.11
2023-01-04T03:40:47.859Z,11.06
2023-01-04T03:43:49.359Z,10.84
2023-01-04T03:46:55.984Z,11.07
2023-01-04T03:49:35.463Z,11.02
2023-01-04T03:52:07.765Z,10.97
2023-01-04T03:54:41.233Z,10.95
2023-01-04T03:57:12.959Z,11.08
2023-01-04T03:59:48.911Z,11.19
2023-01-04T04:02:24.410Z,11.17
2023-01-04T04:05:15.199Z,11.07
2023-01-04T04:08:02.686Z,10.94
2023-01-04T04:10:32.444Z,11.10
2023-01-04T04:13:02.038Z,11.18
2023-01-04T04:15:32.041Z,11.29
2023-01-04T04:18:01.481Z,11.18
2023-01-04T04:20:30.902Z,11.03
2023-01-04T04:23:00.941Z,11.21
2023-01-04T04:25:30.585Z,11.07
2023-01-04T04:28:00.511Z,10.77
2023-01-04T04:30:30.106Z,10.95
2023-01-04T04:32:59.883Z,11.06
2023-01-04T04:35:29.362Z,11.34
2023-01-04T04:37:58.626Z,11.42
2023-01-04T04:40:46.548Z,11.37
2023-01-04T04:43:18.949Z,10.99
2023-01-04T04:45:48.537Z,11.29
2023-01-04T04:48:18.995Z,11.44
2023-01-04T04:50:48.519Z,11.20
2023-01-04T04:53:20.383Z,11.23
2023-01-04T04:55:53.323Z,11.47
2023-01-04T04:58:25.921Z,11.39
2023-01-04T05:00:55.560Z,11.62
2023-01-04T05:03:25.408Z,11.65
2023-01-04T05:05:55.243Z,11.70
2023-01-04T05:08:24.994Z,11.73
2023-01-04T05:10:54.902Z,11.78
2023-01-04T05:13:24.685Z,11.98
2023-01-04T05:15:56.379Z,11.92
2023-01-04T05:18:26.007Z,11.60
2023-01-04T05:20:55.699Z,11.55
2023-01-04T05:23:27.058Z,11.99
2023-01-04T05:26:01.334Z,11.96
2023-01-04T05:28:31.109Z,11.80
2023-01-04T05:31:00.227Z,11.57
2023-01-04T05:33:32.793Z,12.05
2023-01-04T05:36:05.079Z,11.87
2023-01-04T05:38:36.041Z,11.65
2023-01-04T05:41:25.684Z,12.05
2023-01-04T05:43:55.993Z,11.90
2023-01-04T05:46:25.247Z,11.80
2023-01-04T05:48:55.338Z,11.96
2023-01-04T05:51:25.071Z,12.30
2023-01-04T05:53:54.638Z,12.30
2023-01-04T05:56:24.248Z,12.27
2023-01-04T05:58:53.568Z,12.56
2023-01-04T06:01:23.560Z,12.70
2023-01-04T06:03:54.222Z,12.82
2023-01-04T06:06:23.444Z,12.84
2023-01-04T06:08:53.113Z,13.04
2023-01-04T06:11:27.434Z,12.86
2023-01-04T06:13:57.872Z,12.94
2023-01-04T06:16:27.157Z,12.99
2023-01-04T06:18:57.214Z,12.91
2023-01-04T06:21:29.480Z,12.92
2023-01-04T06:24:01.769Z,12.77
2023-01-04T06:26:31.663Z,13.06
2023-01-04T06:29:02.118Z,13.02
2023-01-04T06:31:31.711Z,13.07
2023-01-04T06:34:01.657Z,13.16
2023-01-04T06:36:31.934Z,12.93
2023-01-04T06:39:02.366Z,13.04
2023-01-04T06:41:32.508Z,13.29
2023-01-04T06:44:03.991Z,13.34
2023-01-04T06:46:34.569Z,13.43
2023-01-04T06:49:08.196Z,13.34
2023-01-04T06:51:38.628Z,13.48
2023-01-04T06:54:08.361Z,13.25
2023-01-04T06:56:38.793Z,13.35
2023-01-04T06:59:08.314Z,13.39
2023-01-04T07:01:37.771Z,13.49
2023-01-04T07:04:07.475Z,13.26
2023-01-04T07:06:36.611Z,13.48
2023-01-04T07:09:05.951Z,13.14
2023-01-04T07:11:35.242Z,12.93
2023-01-04T07:14:04.466Z,12.82
2023-01-04T07:16:33.782Z,12.79
2023-01-04T07:19:03.056Z,13.04
2023-01-04T07:21:32.452Z,13.17
2023-01-04T07:24:02.240Z,13.07
2023-01-04T07:26:32.312Z,13.27
2023-01-04T07:29:17.674Z,13.08
2023-01-04T07:31:52.258Z,13.02
2023-01-04T07:34:24.455Z,13.38
2023-01-04T07:36:53.820Z,13.35
2023-01-04T07:39:23.144Z,13.14
2023-01-04T07:41:52.569Z,13.50
2023-01-04T07:44:23.128Z,13.47
2023-01-04T07:46:52.589Z,13.50
2023-01-04T07:49:22.841Z,13.64
2023-01-04T07:51:51.815Z,13.69
2023-01-04T07:54:21.927Z,13.90
2023-01-04T07:56:51.520Z,13.19
2023-01-04T07:59:21.913Z,13.89
2023-01-04T08:01:52.244Z,13.81
2023-01-04T08:04:28.344Z,13.94
2023-01-04T08:07:00.689Z,13.91
2023-01-04T08:09:30.039Z,14.07
2023-01-04T08:11:59.758Z,14.08
2023-01-04T08:14:29.394Z,14.23
2023-01-04T08:16:58.517Z,14.22
2023-01-04T08:19:28.818Z,14.31
2023-01-04T08:21:58.236Z,13.95
2023-01-04T08:24:28.323Z,14.13
2023-01-04T08:26:57.681Z,14.09
2023-01-04T08:29:31.141Z,13.92
2023-01-04T08:32:04.843Z,14.11
2023-01-04T08:34:34.246Z,14.17
2023-01-04T08:37:03.576Z,14.39
2023-01-04T08:39:36.501Z,14.28
2023-01-04T08:42:18.736Z,14.40
2023-01-04T08:44:57.054Z,14.31
2023-01-04T08:47:30.214Z,14.39
2023-01-04T08:50:04.791Z,14.44
2023-01-04T08:52:37.204Z,14.42
2023-01-04T08:55:12.687Z,14.44
2023-01-04T08:57:43.918Z,14.41
2023-01-04T09:00:13.773Z,14.64
2023-01-04T09:02:43.206Z,14.74
2023-01-04T09:05:21.995Z,14.68
2023-01-04T09:07:53.442Z,14.74
2023-01-04T09:10:23.517Z,14.80
2023-01-04T09:12:52.898Z,14.77
2023-01-04T09:15:22.352Z,14.77
2023-01-04T09:18:29.396Z,15.01
2023-01-04T09:20:41.519Z,15.10
2023-01-04T09:23:11.058Z,14.93
2023-01-04T09:25:41.243Z,15.18
2023-01-04T09:28:10.718Z,14.99
2023-01-04T09:30:40.101Z,15.05
2023-01-04T09:33:09.446Z,14.92
2023-01-04T09:35:39.212Z,15.20
2023-01-04T09:38:08.060Z,15.01
2023-01-04T09:41:04.089Z,15.42
2023-01-04T09:43:56.668Z,15.23
2023-01-04T09:46:42.146Z,15.49
2023-01-04T09:49:18.079Z,15.25
2023-01-04T09:52:14.717Z,15.45
2023-01-04T09:54:47.314Z,15.35
2023-01-04T09:57:41.391Z,15.50
2023-01-04T10:00:27.159Z,15.54
2023-01-04T10:03:27.224Z,15.54
2023-01-04T10:06:01.027Z,15.52
2023-01-04T10:08:32.621Z,15.40
2023-01-04T10:11:17.696Z,15.37
2023-01-04T10:13:55.933Z,15.35
2023-01-04T10:17:28.129Z,15.44
2023-01-04T10:23:17.365Z,15.54
2023-01-04T10:25:58.020Z,15.49
2023-01-04T10:28:51.416Z,15.60
2023-01-04T10:31:40.321Z,15.28
2023-01-04T10:34:22.317Z,15.32
2023-01-04T10:36:57.347Z,15.28
2023-01-04T10:39:33.931Z,15.43
2023-01-04T10:42:22.330Z,15.53
2023-01-04T10:45:05.025Z,15.51
2023-01-04T10:48:09.542Z,15.50
2023-01-04T10:50:46.507Z,15.50
2023-01-04T10:53:54.105Z,15.35
2023-01-04T10:56:32.419Z,15.19
2023-01-04T10:59:25.229Z,15.46
2023-01-04T11:01:54.676Z,15.26
2023-01-04T11:04:35.539Z,15.33
2023-01-04T11:07:14.613Z,15.23
2023-01-04T11:10:02.903Z,15.32
2023-01-04T11:12:32.830Z,15.06
2023-01-04T11:15:02.385Z,15.21
2023-01-04T11:17:33.584Z,15.21
2023-01-04T11:20:03.312Z,15.08
2023-01-04T11:22:41.880Z,15.03
2023-01-04T11:25:36.526Z,14.90
2023-01-04T11:28:21.938Z,15.05
2023-01-04T11:31:05.174Z,15.05
2023-01-04T11:33:53.114Z,14.99
2023-01-04T11:36:46.022Z,14.95
2023-01-04T11:39:22.647Z,14.96
2023-01-04T11:42:07.001Z,14.81
2023-01-04T11:44:37.773Z,14.69
2023-01-04T11:47:14.043Z,14.59
2023-01-04T11:49:43.353Z,14.43
2023-01-04T11:52:31.793Z,14.53
2023-01-04T11:55:26.784Z,14.46
2023-01-04T11:58:12.279Z,14.40
2023-01-04T12:00:55.721Z,14.36
2023-01-04T12:03:33.175Z,14.28
2023-01-04T12:06:02.992Z,14.13
2023-01-04T12:08:38.816Z,14.19
2023-01-04T12:11:08.226Z,14.07
2023-01-04T12:13:39.058Z,13.95
2023-01-04T12:16:45.596Z,14.08
2023-01-04T12:19:20.087Z,13.95
2023-01-04T12:22:03.945Z,13.92
2023-01-04T12:24:37.010Z,13.77
2023-01-04T12:27:15.975Z,13.77
2023-01-04T12:29:55.780Z,13.59
2023-01-04T12:32:25.265Z,13.48
2023-01-04T12:34:56.096Z,13.51
2023-01-04T12:37:43.723Z,13.57
2023-01-04T12:40:46.391Z,13.53
2023-01-04T12:43:18.589Z,13.47
2023-01-04T12:48:55.529Z,13.32
2023-01-04T12:51:34.205Z,13.29
2023-01-04T12:54:07.626Z,13.25
2023-01-04T12:57:13.596Z,13.27
2023-01-04T13:00:13.770Z,13.24
2023-01-04T13:03:02.294Z,13.07
2023-01-04T13:05:58.199Z,13.15
2023-01-04T13:08:29.234Z,12.99
2023-01-04T13:10:58.864Z,12.91
2023-01-04T13:13:57.985Z,13.08
2023-01-04T13:16:58.205Z,13.07
2023-01-04T13:19:30.346Z,12.90
2023-01-04T13:22:00.280Z,12.85
2023-01-04T13:24:33.088Z,12.79
2023-01-04T13:27:15.931Z,12.88
2023-01-04T13:29:46.433Z,12.71
2023-01-04T13:32:18.787Z,12.68
2023-01-04T13:34:55.905Z,12.74
2023-01-04T13:37:47.830Z,12.49
2023-01-04T13:40:37.149Z,12.62
2023-01-04T13:43:33.791Z,12.59
2023-01-04T13:46:15.372Z,12.53
2023-01-04T13:48:48.660Z,12.43
2023-01-04T13:51:37.434Z,12.52
2023-01-04T13:54:24.382Z,12.46
2023-01-04T13:56:56.004Z,12.31
2023-01-04T13:59:25.420Z,12.33
2023-01-04T14:01:54.788Z,12.29
2023-01-04T14:04:29.936Z,12.37
2023-01-04T14:07:02.577Z,12.32
2023-01-04T14:09:33.976Z,12.43
2023-01-04T14:12:14.914Z,12.34
2023-01-04T14:14:52.969Z,12.29
2023-01-04T14:17:35.253Z,12.36
2023-01-04T14:20:07.352Z,12.30
2023-01-04T14:22:48.760Z,12.30
2023-01-04T14:25:49.531Z,12.35
2023-01-04T14:28:47.027Z,12.30
2023-01-04T14:31:23.207Z,12.27
2023-01-04T14:33:54.515Z,12.25
2023-01-04T14:36:30.167Z,12.23
2023-01-04T14:39:01.387Z,12.23
2023-01-04T14:42:03.192Z,12.11
2023-01-04T14:44:35.272Z,12.08
2023-01-04T14:47:07.559Z,12.02
2023-01-04T14:49:37.402Z,11.96
2023-01-04T14:52:13.687Z,12.07
2023-01-04T14:54:43.429Z,11.92
2023-01-04T14:57:12.879Z,11.83
2023-01-04T14:59:45.142Z,11.80
2023-01-04T15:02:15.138Z,11.78
2023-01-04T15:04:44.738Z,11.75
2023-01-04T15:07:36.655Z,11.85
2023-01-04T15:10:08.352Z,11.71
2023-01-04T15:12:37.485Z,11.65
2023-01-04T15:15:07.483Z,11.67
2023-01-04T15:17:37.008Z,11.65
2023-01-04T15:20:07.839Z,11.68
2023-01-04T15:22:37.104Z,11.63
2023-01-04T15:25:08.544Z,11.61
2023-01-04T15:27:42.131Z,11.56
2023-01-04T15:30:13.921Z,11.55
2023-01-04T15:32:43.888Z,11.46
2023-01-04T15:35:17.115Z,11.42
2023-01-04T15:37:48.620Z,11.46
2023-01-04T15:40:20.465Z,11.50
2023-01-04T15:43:02.114Z,11.38
2023-01-04T15:45:36.810Z,11.42
2023-01-04T15:48:11.137Z,11.36
2023-01-04T15:50:43.033Z,11.37
2023-01-04T15:53:12.367Z,11.26
2023-01-04T15:55:42.369Z,11.16
2023-01-04T15:58:12.361Z,11.10
2023-01-04T16:00:41.970Z,11.06
2023-01-04T16:03:11.278Z,11.12
2023-01-04T16:05:41.260Z,11.13
2023-01-04T16:08:11.009Z,11.15
2023-01-04T16:10:40.275Z,11.16
2023-01-04T16:13:10.528Z,11.15
2023-01-04T16:15:39.850Z,11.16
2023-01-04T16:18:12.740Z,11.13
2023-01-04T16:20:43.157Z,11.15
2023-01-04T16:23:13.002Z,11.13
2023-01-04T16:25:42.901Z,11.12
2023-01-04T16:28:12.576Z,11.06
2023-01-04T16:30:44.158Z,11.02
2023-01-04T16:33:14.039Z,11.04
2023-01-04T16:35:42.945Z,11.01
2023-01-04T16:38:13.801Z,11.06
2023-01-04T16:40:46.663Z,11.02
2023-01-04T16:43:16.803Z,11.02
2023-01-04T16:45:49.663Z,11.01
2023-01-04T16:48:19.052Z,10.89
2023-01-04T16:50:48.988Z,10.87
2023-01-04T16:53:21.946Z,10.73
2023-01-04T16:55:55.525Z,10.80
2023-01-04T16:58:30.505Z,10.82
2023-01-04T17:01:11.369Z,10.84
2023-01-04T17:03:44.569Z,10.70
2023-01-04T17:06:23.860Z,10.68
2023-01-04T17:08:56.183Z,10.63
2023-01-04T17:14:23.603Z,10.30
2023-01-04T17:16:56.675Z,10.41
2023-01-04T17:19:26.012Z,10.36
2023-01-04T17:21:56.421Z,10.38
2023-01-04T17:24:27.404Z,10.39
2023-01-04T17:26:57.104Z,10.44
2023-01-04T17:29:27.330Z,10.48
2023-01-04T17:31:57.037Z,10.34
2023-01-04T17:34:27.486Z,10.33
2023-01-04T17:36:56.723Z,10.28
2023-01-04T17:39:27.853Z,10.31
2023-01-04T17:41:57.011Z,10.29
2023-01-04T17:44:33.299Z,10.25
2023-01-04T17:47:04.151Z,10.20
2023-01-04T17:49:34.117Z,10.10
2023-01-04T17:52:04.173Z,9.96
2023-01-04T17:54:36.715Z,10.03
2023-01-04T17:57:07.220Z,10.01
2023-01-04T17:59:38.347Z,9.99
2023-01-04T18:02:08.966Z,10.11
2023-01-04T18:04:38.594Z,10.10
2023-01-04T18:07:07.929Z,9.93
2023-01-04T18:09:37.535Z,9.94
2023-01-04T18:12:07.169Z,9.58
2023-01-04T18:14:36.807Z,9.56
2023-01-04T18:17:07.084Z,9.61
2023-01-04T18:19:37.444Z,9.61
2023-01-04T18:22:09.007Z,9.31
2023-01-04T18:24:39.280Z,9.19
2023-01-04T18:27:23.115Z,9.39
2023-01-04T18:29:56.281Z,9.05
2023-01-04T18:32:27.785Z,9.14
2023-01-04T18:34:56.993Z,9.21
2023-01-04T18:37:26.758Z,9.01
2023-01-04T18:39:55.836Z,9.22
2023-01-04T18:42:25.378Z,9.05
2023-01-04T18:44:54.742Z,9.25
2023-01-04T18:47:24.705Z,9.32
2023-01-04T18:49:54.003Z,8.99
2023-01-04T18:52:23.171Z,8.79
2023-01-04T18:54:52.674Z,8.84
2023-01-04T18:57:21.910Z,8.79
2023-01-04T18:59:52.731Z,8.90
2023-01-04T19:02:22.546Z,9.09
2023-01-04T19:04:51.931Z,9.24
2023-01-04T19:07:21.384Z,8.89
2023-01-04T19:09:50.704Z,8.75
2023-01-04T19:12:20.268Z,8.56
2023-01-04T19:14:50.803Z,8.86
2023-01-04T19:17:25.214Z,8.90
2023-01-04T19:19:54.707Z,9.07
2023-01-04T19:22:23.762Z,8.94
2023-01-04T19:24:52.862Z,9.11
2023-01-04T19:27:21.962Z,8.91
2023-01-04T19:29:51.287Z,8.93
2023-01-04T19:32:22.221Z,8.89
2023-01-04T19:34:51.553Z,8.96
2023-01-04T19:37:20.812Z,8.82
2023-01-04T19:39:50.241Z,8.79
2023-01-04T19:42:19.329Z,8.78
2023-01-04T19:44:48.673Z,8.86
2023-01-04T19:47:17.887Z,8.90
2023-01-04T19:49:49.035Z,8.95
2023-01-04T19:52:18.162Z,9.11
2023-01-04T19:54:47.565Z,8.93
2023-01-04T19:57:17.012Z,8.56
2023-01-04T19:59:46.290Z,8.67
2023-01-04T20:02:15.301Z,8.81
2023-01-04T20:04:44.914Z,8.97
2023-01-04T20:07:14.273Z,8.79
2023-01-04T20:09:43.531Z,8.82
2023-01-04T20:12:12.600Z,8.81
2023-01-04T20:14:41.619Z,8.90
2023-01-04T20:17:11.109Z,9.07
2023-01-04T20:19:40.642Z,9.00
2023-01-04T20:22:10.117Z,8.75
2023-01-04T20:24:39.616Z,8.89
2023-01-04T20:27:08.917Z,8.96
2023-01-04T20:29:38.816Z,8.74
2023-01-04T20:32:08.263Z,8.77
2023-01-04T20:34:37.486Z,8.96
2023-01-04T20:37:06.945Z,8.59
2023-01-04T20:39:36.113Z,8.84
2023-01-04T20:42:23.610Z,8.70
2023-01-04T20:44:52.819Z,8.66
2023-01-04T20:47:22.245Z,8.70
2023-01-04T20:49:51.337Z,8.92
2023-01-04T20:52:20.607Z,8.99
2023-01-04T20:54:51.232Z,9.02
2023-01-04T20:57:20.877Z,8.86
2023-01-04T20:59:50.032Z,8.97
2023-01-04T21:02:20.696Z,8.77
2023-01-04T21:04:50.174Z,8.95
2023-01-04T21:07:19.484Z,9.04
2023-01-04T21:09:48.622Z,9.07
2023-01-04T21:12:18.979Z,9.03
2023-01-04T21:14:48.390Z,9.10
2023-01-04T21:17:17.192Z,9.11
2023-01-04T21:19:46.864Z,9.22
2023-01-04T21:22:16.039Z,9.12
2023-01-04T21:24:45.244Z,9.05
2023-01-04T21:27:14.867Z,9.11
2023-01-04T21:29:43.703Z,9.13
2023-01-04T21:32:12.931Z,9.01
2023-01-04T21:34:42.270Z,8.94
2023-01-04T21:37:11.727Z,9.11
2023-01-04T21:39:40.925Z,9.19
2023-01-04T21:42:10.534Z,9.27
2023-01-04T21:44:39.855Z,9.45
2023-01-04T21:47:09.146Z,9.38
2023-01-04T21:49:37.970Z,9.32
2023-01-04T21:52:07.347Z,9.33
2023-01-04T21:54:36.920Z,9.39
2023-01-04T21:57:08.997Z,9.35
2023-01-04T21:59:38.372Z,9.29
2023-01-04T22:02:07.471Z,9.34
2023-01-04T22:04:36.895Z,9.36
2023-01-04T22:07:06.134Z,9.39
2023-01-04T22:09:35.652Z,9.39
2023-01-04T22:12:06.442Z,9.29
2023-01-04T22:14:36.691Z,9.35
2023-01-04T22:17:05.927Z,9.31
2023-01-04T22:19:35.484Z,9.32
2023-01-04T22:22:04.779Z,9.19
2023-01-04T22:24:37.802Z,9.24
2023-01-04T22:27:07.670Z,9.07
2023-01-04T22:29:36.836Z,9.28
2023-01-04T22:32:08.584Z,9.23
2023-01-04T22:34:37.857Z,8.98
2023-01-04T22:37:06.958Z,8.98
2023-01-04T22:39:36.328Z,9.02
2023-01-04T22:42:05.599Z,9.07
2023-01-04T22:44:34.795Z,8.98
2023-01-04T22:47:04.329Z,8.97
2023-01-04T22:49:34.162Z,8.98
2023-01-04T22:52:03.164Z,8.93
2023-01-04T22:54:34.065Z,8.88
2023-01-04T22:57:03.437Z,8.77
2023-01-04T22:59:32.255Z,8.75
2023-01-04T23:02:01.285Z,8.67
2023-01-04T23:04:30.076Z,8.61
2023-01-04T23:06:59.923Z,8.81
2023-01-04T23:09:28.929Z,8.81
2023-01-04T23:11:58.339Z,8.71
2023-01-04T23:14:27.474Z,8.62
2023-01-04T23:16:56.368Z,8.66
2023-01-04T23:19:26.005Z,8.91
2023-01-04T23:21:54.959Z,8.87
2023-01-04T23:24:24.206Z,8.39
2023-01-04T23:26:53.389Z,8.43
2023-01-04T23:29:22.904Z,8.73
2023-01-04T23:31:51.891Z,8.72
2023-01-04T23:34:21.180Z,8.71
2023-01-04T23:36:50.138Z,8.77
2023-01-04T23:39:19.652Z,8.78
2023-01-04T23:41:48.925Z,8.81
2023-01-04T23:46:56.666Z,8.71
2023-01-04T23:49:27.570Z,8.79
2023-01-04T23:51:57.311Z,8.74
2023-01-04T23:54:26.956Z,8.69
2023-01-04T23:56:56.962Z,8.65
2023-01-04T23:59:26.619Z,8.74
